sensor_id;sensor_type;location;lat;lon;timestamp;P1;durP1;ratioP1;P2;durP2;ratioP2
44642;SDS011;33930;-34.276;150.954;2022-08-27T00:00:44;4.22;;;1.08;;
44642;SDS011;33930;-34.276;150.954;2022-08-27T00:03:13;7.47;;;0.88;;
44642;SDS011;33930;-34.276;150.954;2022-08-27T00:05:41;5.78;;;1.77;;
44642;SDS011;33930;-34.276;150.954;2022-08-27T00:08:09;7.32;;;1.35;;
44642;SDS011;33930;-34.276;150.954;2022-08-27T00:10:38;10.13;;;1.52;;
44642;SDS011;33930;-34.276;150.954;2022-08-27T00:13:06;5.68;;;1.45;;
44642;SDS011;33930;-34.276;150.954;2022-08-27T00:15:34;4.18;;;1.15;;
44642;SDS011;33930;-34.276;150.954;2022-08-27T00:18:01;7.18;;;1.80;;
44642;SDS011;33930;-34.276;150.954;2022-08-27T00:20:29;7.95;;;1.52;;
44642;SDS011;33930;-34.276;150.954;2022-08-27T00:22:56;4.82;;;1.63;;
44642;SDS011;33930;-34.276;150.954;2022-08-27T00:25:23;8.18;;;1.92;;
44642;SDS011;33930;-34.276;150.954;2022-08-27T00:27:51;3.90;;;1.40;;
44642;SDS011;33930;-34.276;150.954;2022-08-27T00:30:19;5.53;;;1.55;;
44642;SDS011;33930;-34.276;150.954;2022-08-27T00:32:48;4.82;;;1.40;;
44642;SDS011;33930;-34.276;150.954;2022-08-27T00:35:15;5.25;;;1.95;;
44642;SDS011;33930;-34.276;150.954;2022-08-27T00:37:43;5.57;;;1.83;;
44642;SDS011;33930;-34.276;150.954;2022-08-27T00:40:12;10.00;;;1.75;;
44642;SDS011;33930;-34.276;150.954;2022-08-27T00:42:41;8.55;;;1.60;;
44642;SDS011;33930;-34.276;150.954;2022-08-27T00:45:10;8.45;;;1.92;;
44642;SDS011;33930;-34.276;150.954;2022-08-27T00:47:42;9.25;;;1.85;;
44642;SDS011;33930;-34.276;150.954;2022-08-27T00:50:13;5.72;;;1.38;;
44642;SDS011;33930;-34.276;150.954;2022-08-27T00:52:57;9.45;;;1.63;;
44642;SDS011;33930;-34.276;150.954;2022-08-27T00:55:29;4.00;;;0.80;;
44642;SDS011;33930;-34.276;150.954;2022-08-27T00:58:04;4.55;;;0.80;;
44642;SDS011;33930;-34.276;150.954;2022-08-27T01:00:52;7.25;;;1.67;;
44642;SDS011;33930;-34.276;150.954;2022-08-27T01:03:20;4.88;;;1.20;;
44642;SDS011;33930;-34.276;150.954;2022-08-27T01:05:51;8.80;;;1.63;;
44642;SDS011;33930;-34.276;150.954;2022-08-27T01:08:22;10.20;;;1.85;;
44642;SDS011;33930;-34.276;150.954;2022-08-27T01:10:53;13.85;;;2.25;;
44642;SDS011;33930;-34.276;150.954;2022-08-27T01:13:24;5.43;;;1.63;;
44642;SDS011;33930;-34.276;150.954;2022-08-27T01:15:54;11.00;;;1.58;;
44642;SDS011;33930;-34.276;150.954;2022-08-27T01:18:24;12.07;;;1.27;;
44642;SDS011;33930;-34.276;150.954;2022-08-27T01:21:01;4.47;;;0.98;;
44642;SDS011;33930;-34.276;150.954;2022-08-27T01:23:50;5.20;;;0.88;;
44642;SDS011;33930;-34.276;150.954;2022-08-27T01:26:38;5.95;;;1.17;;
44642;SDS011;33930;-34.276;150.954;2022-08-27T01:29:06;6.72;;;1.42;;
44642;SDS011;33930;-34.276;150.954;2022-08-27T01:31:33;5.07;;;1.00;;
44642;SDS011;33930;-34.276;150.954;2022-08-27T01:34:02;7.00;;;2.22;;
44642;SDS011;33930;-34.276;150.954;2022-08-27T01:36:31;9.27;;;2.20;;
44642;SDS011;33930;-34.276;150.954;2022-08-27T01:38:58;8.68;;;2.42;;
44642;SDS011;33930;-34.276;150.954;2022-08-27T01:41:26;5.18;;;1.75;;
44642;SDS011;33930;-34.276;150.954;2022-08-27T01:43:53;9.55;;;2.65;;
44642;SDS011;33930;-34.276;150.954;2022-08-27T01:46:24;9.18;;;1.85;;
44642;SDS011;33930;-34.276;150.954;2022-08-27T01:48:53;20.52;;;2.97;;
44642;SDS011;33930;-34.276;150.954;2022-08-27T01:51:21;8.07;;;1.55;;
44642;SDS011;33930;-34.276;150.954;2022-08-27T01:53:48;3.08;;;1.00;;
44642;SDS011;33930;-34.276;150.954;2022-08-27T01:56:16;5.30;;;0.85;;
44642;SDS011;33930;-34.276;150.954;2022-08-27T01:58:43;11.10;;;1.52;;
44642;SDS011;33930;-34.276;150.954;2022-08-27T02:01:11;7.05;;;1.30;;
44642;SDS011;33930;-34.276;150.954;2022-08-27T02:03:44;3.63;;;0.95;;
44642;SDS011;33930;-34.276;150.954;2022-08-27T02:06:13;8.80;;;1.00;;
44642;SDS011;33930;-34.276;150.954;2022-08-27T02:08:40;7.97;;;0.80;;
44642;SDS011;33930;-34.276;150.954;2022-08-27T02:11:08;6.00;;;1.10;;
44642;SDS011;33930;-34.276;150.954;2022-08-27T02:13:35;2.67;;;0.50;;
44642;SDS011;33930;-34.276;150.954;2022-08-27T02:16:03;1.00;;;0.22;;
44642;SDS011;33930;-34.276;150.954;2022-08-27T02:18:33;2.17;;;0.20;;
44642;SDS011;33930;-34.276;150.954;2022-08-27T02:21:02;3.28;;;0.50;;
44642;SDS011;33930;-34.276;150.954;2022-08-27T02:23:30;1.58;;;0.30;;
44642;SDS011;33930;-34.276;150.954;2022-08-27T02:25:58;0.80;;;0.20;;
44642;SDS011;33930;-34.276;150.954;2022-08-27T02:28:25;2.25;;;0.30;;
44642;SDS011;33930;-34.276;150.954;2022-08-27T02:30:52;5.15;;;0.95;;
44642;SDS011;33930;-34.276;150.954;2022-08-27T02:33:19;6.93;;;1.17;;
44642;SDS011;33930;-34.276;150.954;2022-08-27T02:35:47;6.10;;;0.85;;
44642;SDS011;33930;-34.276;150.954;2022-08-27T02:38:14;5.40;;;1.20;;
44642;SDS011;33930;-34.276;150.954;2022-08-27T02:40:41;5.45;;;1.55;;
44642;SDS011;33930;-34.276;150.954;2022-08-27T02:43:09;6.80;;;1.42;;
44642;SDS011;33930;-34.276;150.954;2022-08-27T02:45:36;13.13;;;1.80;;
44642;SDS011;33930;-34.276;150.954;2022-08-27T02:48:04;5.00;;;1.10;;
44642;SDS011;33930;-34.276;150.954;2022-08-27T02:50:32;3.55;;;0.88;;
44642;SDS011;33930;-34.276;150.954;2022-08-27T02:53:01;11.13;;;1.30;;
44642;SDS011;33930;-34.276;150.954;2022-08-27T02:55:30;5.45;;;0.82;;
44642;SDS011;33930;-34.276;150.954;2022-08-27T02:57:58;7.43;;;1.58;;
44642;SDS011;33930;-34.276;150.954;2022-08-27T03:00:26;5.85;;;1.27;;
44642;SDS011;33930;-34.276;150.954;2022-08-27T03:02:53;14.90;;;2.67;;
44642;SDS011;33930;-34.276;150.954;2022-08-27T03:05:22;4.60;;;0.75;;
44642;SDS011;33930;-34.276;150.954;2022-08-27T03:07:50;8.68;;;1.17;;
44642;SDS011;33930;-34.276;150.954;2022-08-27T03:10:17;7.85;;;1.35;;
44642;SDS011;33930;-34.276;150.954;2022-08-27T03:12:46;4.43;;;1.13;;
44642;SDS011;33930;-34.276;150.954;2022-08-27T03:15:15;1.92;;;0.50;;
44642;SDS011;33930;-34.276;150.954;2022-08-27T03:17:44;2.90;;;0.55;;
44642;SDS011;33930;-34.276;150.954;2022-08-27T03:20:29;7.22;;;1.10;;
44642;SDS011;33930;-34.276;150.954;2022-08-27T03:22:58;9.18;;;1.60;;
44642;SDS011;33930;-34.276;150.954;2022-08-27T03:25:25;9.90;;;2.35;;
44642;SDS011;33930;-34.276;150.954;2022-08-27T03:27:53;4.72;;;1.35;;
44642;SDS011;33930;-34.276;150.954;2022-08-27T03:30:21;12.77;;;1.80;;
44642;SDS011;33930;-34.276;150.954;2022-08-27T03:32:49;12.65;;;1.60;;
44642;SDS011;33930;-34.276;150.954;2022-08-27T03:35:17;7.50;;;1.33;;
44642;SDS011;33930;-34.276;150.954;2022-08-27T03:37:46;8.40;;;1.38;;
44642;SDS011;33930;-34.276;150.954;2022-08-27T03:40:14;5.95;;;0.70;;
44642;SDS011;33930;-34.276;150.954;2022-08-27T03:42:42;15.23;;;2.15;;
44642;SDS011;33930;-34.276;150.954;2022-08-27T03:45:09;9.15;;;1.40;;
44642;SDS011;33930;-34.276;150.954;2022-08-27T03:47:37;4.68;;;1.73;;
44642;SDS011;33930;-34.276;150.954;2022-08-27T03:50:05;10.70;;;1.30;;
44642;SDS011;33930;-34.276;150.954;2022-08-27T03:52:33;6.28;;;0.73;;
44642;SDS011;33930;-34.276;150.954;2022-08-27T03:55:02;6.65;;;0.82;;
44642;SDS011;33930;-34.276;150.954;2022-08-27T03:57:31;3.67;;;1.00;;
44642;SDS011;33930;-34.276;150.954;2022-08-27T03:59:59;5.35;;;1.08;;
44642;SDS011;33930;-34.276;150.954;2022-08-27T04:02:26;7.70;;;0.50;;
44642;SDS011;33930;-34.276;150.954;2022-08-27T04:04:54;8.43;;;1.23;;
44642;SDS011;33930;-34.276;150.954;2022-08-27T04:07:22;8.40;;;1.27;;
44642;SDS011;33930;-34.276;150.954;2022-08-27T04:09:49;5.78;;;1.10;;
44642;SDS011;33930;-34.276;150.954;2022-08-27T04:12:16;4.22;;;1.10;;
44642;SDS011;33930;-34.276;150.954;2022-08-27T04:14:44;3.08;;;0.40;;
44642;SDS011;33930;-34.276;150.954;2022-08-27T04:17:11;2.42;;;0.55;;
44642;SDS011;33930;-34.276;150.954;2022-08-27T04:19:39;7.78;;;1.05;;
44642;SDS011;33930;-34.276;150.954;2022-08-27T04:22:06;4.78;;;0.88;;
44642;SDS011;33930;-34.276;150.954;2022-08-27T04:24:34;7.65;;;1.38;;
44642;SDS011;33930;-34.276;150.954;2022-08-27T04:27:03;14.05;;;2.45;;
44642;SDS011;33930;-34.276;150.954;2022-08-27T04:29:31;6.10;;;1.60;;
44642;SDS011;33930;-34.276;150.954;2022-08-27T04:31:59;5.80;;;1.08;;
44642;SDS011;33930;-34.276;150.954;2022-08-27T04:34:26;8.20;;;2.33;;
44642;SDS011;33930;-34.276;150.954;2022-08-27T04:36:55;6.53;;;1.13;;
44642;SDS011;33930;-34.276;150.954;2022-08-27T04:39:23;1.85;;;0.50;;
44642;SDS011;33930;-34.276;150.954;2022-08-27T04:41:53;2.25;;;0.70;;
44642;SDS011;33930;-34.276;150.954;2022-08-27T04:44:22;2.50;;;0.50;;
44642;SDS011;33930;-34.276;150.954;2022-08-27T04:46:55;5.57;;;0.82;;
44642;SDS011;33930;-34.276;150.954;2022-08-27T04:49:24;4.72;;;0.88;;
44642;SDS011;33930;-34.276;150.954;2022-08-27T04:51:52;6.82;;;0.75;;
44642;SDS011;33930;-34.276;150.954;2022-08-27T04:54:20;5.10;;;0.82;;
44642;SDS011;33930;-34.276;150.954;2022-08-27T04:56:47;3.05;;;0.77;;
44642;SDS011;33930;-34.276;150.954;2022-08-27T04:59:15;3.65;;;0.82;;
44642;SDS011;33930;-34.276;150.954;2022-08-27T05:01:42;1.30;;;0.40;;
44642;SDS011;33930;-34.276;150.954;2022-08-27T05:04:11;2.50;;;0.70;;
44642;SDS011;33930;-34.276;150.954;2022-08-27T05:06:39;3.45;;;0.70;;
44642;SDS011;33930;-34.276;150.954;2022-08-27T05:09:10;10.00;;;1.00;;
44642;SDS011;33930;-34.276;150.954;2022-08-27T05:11:38;11.20;;;1.50;;
44642;SDS011;33930;-34.276;150.954;2022-08-27T05:14:09;12.95;;;1.70;;
44642;SDS011;33930;-34.276;150.954;2022-08-27T05:16:38;7.95;;;0.95;;
44642;SDS011;33930;-34.276;150.954;2022-08-27T05:19:07;3.47;;;0.95;;
44642;SDS011;33930;-34.276;150.954;2022-08-27T05:21:42;5.07;;;0.68;;
44642;SDS011;33930;-34.276;150.954;2022-08-27T05:24:14;3.17;;;0.77;;
44642;SDS011;33930;-34.276;150.954;2022-08-27T05:26:42;1.15;;;0.47;;
44642;SDS011;33930;-34.276;150.954;2022-08-27T05:29:10;5.70;;;0.70;;
44642;SDS011;33930;-34.276;150.954;2022-08-27T05:31:39;4.65;;;0.63;;
44642;SDS011;33930;-34.276;150.954;2022-08-27T05:34:06;4.80;;;0.95;;
44642;SDS011;33930;-34.276;150.954;2022-08-27T05:36:34;3.33;;;0.50;;
44642;SDS011;33930;-34.276;150.954;2022-08-27T05:39:03;2.08;;;0.70;;
44642;SDS011;33930;-34.276;150.954;2022-08-27T05:41:31;6.90;;;0.98;;
44642;SDS011;33930;-34.276;150.954;2022-08-27T05:44:01;4.38;;;0.70;;
44642;SDS011;33930;-34.276;150.954;2022-08-27T05:46:30;3.33;;;0.70;;
44642;SDS011;33930;-34.276;150.954;2022-08-27T05:48:58;3.17;;;0.30;;
44642;SDS011;33930;-34.276;150.954;2022-08-27T05:51:30;1.73;;;0.50;;
44642;SDS011;33930;-34.276;150.954;2022-08-27T05:54:01;14.73;;;2.10;;
44642;SDS011;33930;-34.276;150.954;2022-08-27T05:56:39;6.93;;;1.15;;
44642;SDS011;33930;-34.276;150.954;2022-08-27T05:59:07;7.50;;;1.13;;
44642;SDS011;33930;-34.276;150.954;2022-08-27T06:01:55;6.45;;;0.70;;
44642;SDS011;33930;-34.276;150.954;2022-08-27T06:04:23;6.32;;;1.33;;
44642;SDS011;33930;-34.276;150.954;2022-08-27T06:06:51;4.68;;;0.93;;
44642;SDS011;33930;-34.276;150.954;2022-08-27T06:09:20;4.40;;;1.10;;
44642;SDS011;33930;-34.276;150.954;2022-08-27T06:11:52;2.45;;;0.68;;
44642;SDS011;33930;-34.276;150.954;2022-08-27T06:14:20;5.32;;;1.00;;
44642;SDS011;33930;-34.276;150.954;2022-08-27T06:16:47;4.63;;;1.10;;
44642;SDS011;33930;-34.276;150.954;2022-08-27T06:19:14;1.27;;;0.57;;
44642;SDS011;33930;-34.276;150.954;2022-08-27T06:21:42;2.85;;;0.82;;
44642;SDS011;33930;-34.276;150.954;2022-08-27T06:24:10;7.32;;;1.08;;
44642;SDS011;33930;-34.276;150.954;2022-08-27T06:26:39;4.28;;;0.98;;
44642;SDS011;33930;-34.276;150.954;2022-08-27T06:29:08;5.07;;;0.80;;
44642;SDS011;33930;-34.276;150.954;2022-08-27T06:31:36;7.90;;;1.00;;
44642;SDS011;33930;-34.276;150.954;2022-08-27T06:34:05;2.97;;;0.63;;
44642;SDS011;33930;-34.276;150.954;2022-08-27T06:36:38;5.25;;;1.10;;
44642;SDS011;33930;-34.276;150.954;2022-08-27T06:39:07;3.05;;;1.13;;
44642;SDS011;33930;-34.276;150.954;2022-08-27T06:41:40;3.00;;;1.30;;
44642;SDS011;33930;-34.276;150.954;2022-08-27T06:44:08;2.78;;;1.33;;
44642;SDS011;33930;-34.276;150.954;2022-08-27T06:46:36;1.67;;;0.90;;
44642;SDS011;33930;-34.276;150.954;2022-08-27T06:49:04;2.92;;;1.10;;
44642;SDS011;33930;-34.276;150.954;2022-08-27T06:51:35;4.78;;;1.83;;
44642;SDS011;33930;-34.276;150.954;2022-08-27T06:54:05;2.40;;;1.50;;
44642;SDS011;33930;-34.276;150.954;2022-08-27T06:56:34;2.65;;;1.85;;
44642;SDS011;33930;-34.276;150.954;2022-08-27T06:59:03;4.28;;;1.88;;
44642;SDS011;33930;-34.276;150.954;2022-08-27T07:01:33;16.77;;;8.60;;
44642;SDS011;33930;-34.276;150.954;2022-08-27T07:04:04;57.92;;;26.58;;
44642;SDS011;33930;-34.276;150.954;2022-08-27T07:06:33;46.35;;;22.83;;
44642;SDS011;33930;-34.276;150.954;2022-08-27T07:09:02;45.42;;;22.70;;
44642;SDS011;33930;-34.276;150.954;2022-08-27T07:11:31;35.60;;;20.30;;
44642;SDS011;33930;-34.276;150.954;2022-08-27T07:13:58;30.60;;;15.18;;
44642;SDS011;33930;-34.276;150.954;2022-08-27T07:16:27;9.75;;;5.78;;
44642;SDS011;33930;-34.276;150.954;2022-08-27T07:18:55;10.30;;;4.70;;
44642;SDS011;33930;-34.276;150.954;2022-08-27T07:21:24;4.82;;;2.90;;
44642;SDS011;33930;-34.276;150.954;2022-08-27T07:23:53;4.47;;;2.25;;
44642;SDS011;33930;-34.276;150.954;2022-08-27T07:26:29;2.65;;;1.80;;
44642;SDS011;33930;-34.276;150.954;2022-08-27T07:28:59;4.00;;;1.50;;
44642;SDS011;33930;-34.276;150.954;2022-08-27T07:31:27;5.13;;;1.30;;
44642;SDS011;33930;-34.276;150.954;2022-08-27T07:33:54;2.25;;;0.90;;
44642;SDS011;33930;-34.276;150.954;2022-08-27T07:36:22;3.65;;;0.70;;
44642;SDS011;33930;-34.276;150.954;2022-08-27T07:38:49;3.13;;;0.80;;
44642;SDS011;33930;-34.276;150.954;2022-08-27T07:41:17;2.67;;;0.77;;
44642;SDS011;33930;-34.276;150.954;2022-08-27T07:43:45;4.75;;;1.27;;
44642;SDS011;33930;-34.276;150.954;2022-08-27T07:46:30;3.80;;;1.88;;
44642;SDS011;33930;-34.276;150.954;2022-08-27T07:48:57;4.60;;;1.75;;
44642;SDS011;33930;-34.276;150.954;2022-08-27T07:51:26;3.80;;;1.58;;
44642;SDS011;33930;-34.276;150.954;2022-08-27T07:53:57;6.60;;;1.65;;
44642;SDS011;33930;-34.276;150.954;2022-08-27T07:56:24;6.88;;;1.58;;
44642;SDS011;33930;-34.276;150.954;2022-08-27T07:58:51;5.70;;;1.58;;
44642;SDS011;33930;-34.276;150.954;2022-08-27T08:01:19;3.45;;;2.08;;
44642;SDS011;33930;-34.276;150.954;2022-08-27T08:03:48;4.38;;;1.80;;
44642;SDS011;33930;-34.276;150.954;2022-08-27T08:06:16;3.72;;;1.83;;
44642;SDS011;33930;-34.276;150.954;2022-08-27T08:08:43;8.98;;;1.50;;
44642;SDS011;33930;-34.276;150.954;2022-08-27T08:11:11;3.17;;;1.35;;
44642;SDS011;33930;-34.276;150.954;2022-08-27T08:13:41;6.90;;;0.95;;
44642;SDS011;33930;-34.276;150.954;2022-08-27T08:16:10;1.60;;;0.85;;
44642;SDS011;33930;-34.276;150.954;2022-08-27T08:18:38;5.97;;;1.05;;
44642;SDS011;33930;-34.276;150.954;2022-08-27T08:21:07;4.60;;;0.60;;
44642;SDS011;33930;-34.276;150.954;2022-08-27T08:23:37;2.47;;;0.55;;
44642;SDS011;33930;-34.276;150.954;2022-08-27T08:26:06;2.72;;;0.70;;
44642;SDS011;33930;-34.276;150.954;2022-08-27T08:28:34;1.48;;;0.90;;
44642;SDS011;33930;-34.276;150.954;2022-08-27T08:31:01;7.43;;;1.33;;
44642;SDS011;33930;-34.276;150.954;2022-08-27T08:33:29;2.53;;;1.23;;
44642;SDS011;33930;-34.276;150.954;2022-08-27T08:36:15;3.03;;;1.73;;
44642;SDS011;33930;-34.276;150.954;2022-08-27T08:38:43;2.92;;;1.77;;
44642;SDS011;33930;-34.276;150.954;2022-08-27T08:43:52;6.10;;;1.50;;
44642;SDS011;33930;-34.276;150.954;2022-08-27T08:46:32;1.13;;;0.60;;
44642;SDS011;33930;-34.276;150.954;2022-08-27T08:49:06;1.70;;;0.60;;
44642;SDS011;33930;-34.276;150.954;2022-08-27T08:51:48;3.63;;;0.40;;
44642;SDS011;33930;-34.276;150.954;2022-08-27T08:54:19;1.20;;;0.22;;
44642;SDS011;33930;-34.276;150.954;2022-08-27T08:56:54;2.50;;;0.38;;
44642;SDS011;33930;-34.276;150.954;2022-08-27T09:02:10;0.20;;;0.20;;
44642;SDS011;33930;-34.276;150.954;2022-08-27T09:04:42;2.08;;;0.22;;
44642;SDS011;33930;-34.276;150.954;2022-08-27T09:09:55;3.05;;;0.52;;
44642;SDS011;33930;-34.276;150.954;2022-08-27T09:12:28;4.13;;;0.85;;
44642;SDS011;33930;-34.276;150.954;2022-08-27T09:14:59;1.75;;;0.95;;
44642;SDS011;33930;-34.276;150.954;2022-08-27T09:17:42;1.27;;;0.28;;
44642;SDS011;33930;-34.276;150.954;2022-08-27T09:20:12;1.17;;;0.22;;
44642;SDS011;33930;-34.276;150.954;2022-08-27T09:23:05;1.13;;;0.20;;
44642;SDS011;33930;-34.276;150.954;2022-08-27T09:25:34;1.42;;;0.30;;
44642;SDS011;33930;-34.276;150.954;2022-08-27T09:28:09;0.32;;;0.32;;
44642;SDS011;33930;-34.276;150.954;2022-08-27T09:30:58;1.02;;;0.20;;
44642;SDS011;33930;-34.276;150.954;2022-08-27T09:33:29;1.23;;;0.30;;
44642;SDS011;33930;-34.276;150.954;2022-08-27T09:35:59;2.15;;;1.10;;
44642;SDS011;33930;-34.276;150.954;2022-08-27T09:38:30;1.52;;;0.52;;
44642;SDS011;33930;-34.276;150.954;2022-08-27T09:41:06;1.35;;;0.47;;
44642;SDS011;33930;-34.276;150.954;2022-08-27T09:43:39;2.53;;;0.40;;
44642;SDS011;33930;-34.276;150.954;2022-08-27T09:46:20;0.55;;;0.22;;
44642;SDS011;33930;-34.276;150.954;2022-08-27T09:48:49;1.35;;;0.30;;
44642;SDS011;33930;-34.276;150.954;2022-08-27T09:51:21;1.92;;;0.52;;
44642;SDS011;33930;-34.276;150.954;2022-08-27T09:53:53;0.32;;;0.30;;
44642;SDS011;33930;-34.276;150.954;2022-08-27T09:56:35;2.17;;;0.22;;
44642;SDS011;33930;-34.276;150.954;2022-08-27T09:59:11;3.20;;;1.17;;
44642;SDS011;33930;-34.276;150.954;2022-08-27T10:01:51;0.52;;;0.40;;
44642;SDS011;33930;-34.276;150.954;2022-08-27T10:04:24;1.10;;;0.10;;
44642;SDS011;33930;-34.276;150.954;2022-08-27T10:07:21;0.88;;;0.20;;
44642;SDS011;33930;-34.276;150.954;2022-08-27T10:15:28;5.53;;;0.30;;
44642;SDS011;33930;-34.276;150.954;2022-08-27T10:18:07;0.85;;;0.40;;
44642;SDS011;33930;-34.276;150.954;2022-08-27T10:20:46;2.60;;;0.85;;
44642;SDS011;33930;-34.276;150.954;2022-08-27T10:23:37;2.38;;;0.55;;
44642;SDS011;33930;-34.276;150.954;2022-08-27T10:26:27;0.95;;;0.50;;
44642;SDS011;33930;-34.276;150.954;2022-08-27T10:31:35;3.25;;;0.93;;
44642;SDS011;33930;-34.276;150.954;2022-08-27T10:37:27;3.15;;;0.50;;
44642;SDS011;33930;-34.276;150.954;2022-08-27T10:50:33;3.55;;;1.40;;
44642;SDS011;33930;-34.276;150.954;2022-08-27T10:53:06;2.88;;;2.10;;
44642;SDS011;33930;-34.276;150.954;2022-08-27T10:55:46;4.05;;;2.95;;
44642;SDS011;33930;-34.276;150.954;2022-08-27T11:04:04;1.77;;;1.05;;
44642;SDS011;33930;-34.276;150.954;2022-08-27T11:09:11;2.95;;;1.77;;
44642;SDS011;33930;-34.276;150.954;2022-08-27T11:11:45;2.17;;;1.95;;
44642;SDS011;33930;-34.276;150.954;2022-08-27T11:14:26;3.42;;;2.45;;
44642;SDS011;33930;-34.276;150.954;2022-08-27T11:17:10;3.60;;;2.70;;
44642;SDS011;33930;-34.276;150.954;2022-08-27T11:20:03;3.72;;;1.83;;
44642;SDS011;33930;-34.276;150.954;2022-08-27T11:23:05;1.58;;;0.60;;
44642;SDS011;33930;-34.276;150.954;2022-08-27T11:28:25;0.50;;;0.35;;
44642;SDS011;33930;-34.276;150.954;2022-08-27T11:36:18;0.95;;;0.50;;
44642;SDS011;33930;-34.276;150.954;2022-08-27T11:44:18;1.15;;;0.45;;
44642;SDS011;33930;-34.276;150.954;2022-08-27T11:46:57;0.20;;;0.10;;
44642;SDS011;33930;-34.276;150.954;2022-08-27T11:49:40;0.20;;;0.10;;
44642;SDS011;33930;-34.276;150.954;2022-08-27T11:52:20;2.50;;;0.30;;
44642;SDS011;33930;-34.276;150.954;2022-08-27T11:57:48;0.10;;;0.10;;
44642;SDS011;33930;-34.276;150.954;2022-08-27T12:00:30;0.28;;;0.17;;
44642;SDS011;33930;-34.276;150.954;2022-08-27T12:05:43;1.60;;;0.20;;
44642;SDS011;33930;-34.276;150.954;2022-08-27T12:21:55;15.00;;;5.32;;
44642;SDS011;33930;-34.276;150.954;2022-08-27T12:32:48;3.63;;;0.73;;
44642;SDS011;33930;-34.276;150.954;2022-08-27T12:40:53;0.55;;;0.10;;
44642;SDS011;33930;-34.276;150.954;2022-08-27T12:43:34;0.28;;;0.10;;
44642;SDS011;33930;-34.276;150.954;2022-08-27T12:46:07;1.65;;;0.20;;
44642;SDS011;33930;-34.276;150.954;2022-08-27T12:56:52;1.30;;;0.25;;
44642;SDS011;33930;-34.276;150.954;2022-08-27T13:05:05;1.52;;;0.40;;
44642;SDS011;33930;-34.276;150.954;2022-08-27T13:07:39;1.10;;;0.30;;
44642;SDS011;33930;-34.276;150.954;2022-08-27T13:10:10;1.02;;;0.20;;
44642;SDS011;33930;-34.276;150.954;2022-08-27T13:12:40;0.47;;;0.20;;
44642;SDS011;33930;-34.276;150.954;2022-08-27T13:15:09;0.57;;;0.10;;
44642;SDS011;33930;-34.276;150.954;2022-08-27T13:17:39;0.50;;;0.47;;
44642;SDS011;33930;-34.276;150.954;2022-08-27T13:20:19;2.03;;;1.65;;
44642;SDS011;33930;-34.276;150.954;2022-08-27T13:22:49;1.13;;;0.88;;
44642;SDS011;33930;-34.276;150.954;2022-08-27T13:25:19;4.10;;;0.88;;
44642;SDS011;33930;-34.276;150.954;2022-08-27T13:28:01;1.00;;;0.90;;
44642;SDS011;33930;-34.276;150.954;2022-08-27T13:30:38;2.35;;;0.50;;
44642;SDS011;33930;-34.276;150.954;2022-08-27T13:33:10;2.33;;;0.95;;
44642;SDS011;33930;-34.276;150.954;2022-08-27T13:35:50;0.65;;;0.30;;
44642;SDS011;33930;-34.276;150.954;2022-08-27T13:38:17;0.20;;;0.20;;
44642;SDS011;33930;-34.276;150.954;2022-08-27T13:41:08;0.47;;;0.20;;
44642;SDS011;33930;-34.276;150.954;2022-08-27T13:43:45;1.02;;;0.25;;
44642;SDS011;33930;-34.276;150.954;2022-08-27T13:46:16;0.43;;;0.30;;
44642;SDS011;33930;-34.276;150.954;2022-08-27T13:48:47;1.70;;;0.28;;
44642;SDS011;33930;-34.276;150.954;2022-08-27T13:51:56;1.02;;;0.20;;
44642;SDS011;33930;-34.276;150.954;2022-08-27T13:54:10;0.22;;;0.13;;
44642;SDS011;33930;-34.276;150.954;2022-08-27T13:56:41;3.40;;;0.25;;
44642;SDS011;33930;-34.276;150.954;2022-08-27T13:59:33;1.08;;;0.50;;
44642;SDS011;33930;-34.276;150.954;2022-08-27T14:04:41;2.45;;;0.60;;
44642;SDS011;33930;-34.276;150.954;2022-08-27T14:09:54;0.47;;;0.47;;
44642;SDS011;33930;-34.276;150.954;2022-08-27T14:12:31;0.68;;;0.10;;
44642;SDS011;33930;-34.276;150.954;2022-08-27T14:15:30;4.47;;;0.82;;
44642;SDS011;33930;-34.276;150.954;2022-08-27T14:18:47;0.50;;;0.40;;
44642;SDS011;33930;-34.276;150.954;2022-08-27T14:21:14;0.47;;;0.20;;
44642;SDS011;33930;-34.276;150.954;2022-08-27T14:23:42;2.30;;;0.20;;
44642;SDS011;33930;-34.276;150.954;2022-08-27T14:26:09;0.82;;;0.00;;
44642;SDS011;33930;-34.276;150.954;2022-08-27T14:28:38;1.13;;;0.57;;
44642;SDS011;33930;-34.276;150.954;2022-08-27T14:31:07;0.47;;;0.20;;
44642;SDS011;33930;-34.276;150.954;2022-08-27T14:33:34;0.52;;;0.30;;
44642;SDS011;33930;-34.276;150.954;2022-08-27T14:36:01;1.05;;;0.20;;
44642;SDS011;33930;-34.276;150.954;2022-08-27T14:38:30;0.10;;;0.10;;
44642;SDS011;33930;-34.276;150.954;2022-08-27T14:40:59;1.75;;;0.10;;
44642;SDS011;33930;-34.276;150.954;2022-08-27T14:43:26;0.35;;;0.20;;
44642;SDS011;33930;-34.276;150.954;2022-08-27T14:45:53;0.20;;;0.10;;
44642;SDS011;33930;-34.276;150.954;2022-08-27T14:48:23;1.20;;;0.20;;
44642;SDS011;33930;-34.276;150.954;2022-08-27T14:50:55;1.13;;;0.10;;
44642;SDS011;33930;-34.276;150.954;2022-08-27T14:53:23;0.17;;;0.08;;
44642;SDS011;33930;-34.276;150.954;2022-08-27T14:55:51;1.02;;;0.10;;
44642;SDS011;33930;-34.276;150.954;2022-08-27T14:58:20;0.10;;;0.10;;
44642;SDS011;33930;-34.276;150.954;2022-08-27T15:00:47;0.90;;;0.28;;
44642;SDS011;33930;-34.276;150.954;2022-08-27T15:03:16;1.05;;;0.32;;
44642;SDS011;33930;-34.276;150.954;2022-08-27T15:05:44;0.03;;;0.03;;
44642;SDS011;33930;-34.276;150.954;2022-08-27T15:08:11;0.63;;;0.20;;
44642;SDS011;33930;-34.276;150.954;2022-08-27T15:10:40;0.40;;;0.20;;
44642;SDS011;33930;-34.276;150.954;2022-08-27T15:13:07;1.17;;;0.25;;
44642;SDS011;33930;-34.276;150.954;2022-08-27T15:15:35;0.65;;;0.20;;
44642;SDS011;33930;-34.276;150.954;2022-08-27T15:18:03;2.28;;;0.30;;
44642;SDS011;33930;-34.276;150.954;2022-08-27T15:20:31;0.40;;;0.20;;
44642;SDS011;33930;-34.276;150.954;2022-08-27T15:22:58;2.92;;;0.13;;
44642;SDS011;33930;-34.276;150.954;2022-08-27T15:25:26;0.82;;;0.40;;
44642;SDS011;33930;-34.276;150.954;2022-08-27T15:27:55;2.10;;;0.60;;
44642;SDS011;33930;-34.276;150.954;2022-08-27T15:30:24;5.03;;;2.38;;
44642;SDS011;33930;-34.276;150.954;2022-08-27T15:32:53;8.02;;;3.92;;
44642;SDS011;33930;-34.276;150.954;2022-08-27T15:35:23;25.65;;;9.45;;
44642;SDS011;33930;-34.276;150.954;2022-08-27T15:37:52;33.00;;;12.40;;
44642;SDS011;33930;-34.276;150.954;2022-08-27T15:40:21;24.25;;;8.05;;
44642;SDS011;33930;-34.276;150.954;2022-08-27T15:43:00;10.88;;;4.22;;
44642;SDS011;33930;-34.276;150.954;2022-08-27T15:45:30;7.43;;;2.65;;
44642;SDS011;33930;-34.276;150.954;2022-08-27T15:47:58;5.30;;;1.15;;
44642;SDS011;33930;-34.276;150.954;2022-08-27T15:50:26;2.75;;;1.02;;
44642;SDS011;33930;-34.276;150.954;2022-08-27T15:52:57;1.85;;;0.85;;
44642;SDS011;33930;-34.276;150.954;2022-08-27T15:55:27;2.83;;;0.68;;
44642;SDS011;33930;-34.276;150.954;2022-08-27T15:57:57;2.20;;;0.80;;
44642;SDS011;33930;-34.276;150.954;2022-08-27T16:00:26;3.00;;;0.90;;
44642;SDS011;33930;-34.276;150.954;2022-08-27T16:02:57;2.70;;;1.00;;
44642;SDS011;33930;-34.276;150.954;2022-08-27T16:05:25;2.63;;;0.50;;
44642;SDS011;33930;-34.276;150.954;2022-08-27T16:07:55;0.80;;;0.20;;
44642;SDS011;33930;-34.276;150.954;2022-08-27T16:10:23;1.83;;;0.85;;
44642;SDS011;33930;-34.276;150.954;2022-08-27T16:12:51;1.45;;;0.30;;
44642;SDS011;33930;-34.276;150.954;2022-08-27T16:15:18;0.30;;;0.17;;